createdAt,value
2022-12-12T00:01:26.335Z,-0.30
2022-12-12T00:03:57.548Z,-0.30
2022-12-12T00:06:25.363Z,-0.30
2022-12-12T00:08:56.263Z,-0.33
2022-12-12T00:11:29.660Z,-0.33
2022-12-12T00:13:57.821Z,-0.33
2022-12-12T00:16:25.993Z,-0.34
2022-12-12T00:18:54.139Z,-0.34
2022-12-12T00:21:24.989Z,-0.35
2022-12-12T00:23:52.676Z,-0.35
2022-12-12T00:26:26.811Z,-0.35
2022-12-12T00:28:55.598Z,-0.34
2022-12-12T00:31:22.941Z,-0.35
2022-12-12T00:33:51.721Z,-0.34
2022-12-12T00:36:23.903Z,-0.34
2022-12-12T00:38:52.872Z,-0.34
2022-12-12T00:41:21.127Z,-0.33
2022-12-12T00:43:48.803Z,-0.33
2022-12-12T00:46:19.488Z,-0.33
2022-12-12T00:48:47.080Z,-0.34
2022-12-12T00:51:18.483Z,-0.35
2022-12-12T00:53:46.726Z,-0.35
2022-12-12T00:56:18.665Z,-0.37
2022-12-12T00:58:46.745Z,-0.37
2022-12-12T01:01:27.134Z,-0.36
2022-12-12T01:03:56.885Z,-0.35
2022-12-12T01:06:24.567Z,-0.35
2022-12-12T01:08:53.262Z,-0.35
2022-12-12T01:11:21.529Z,-0.35
2022-12-12T01:13:51.565Z,-0.34
2022-12-12T01:16:19.065Z,-0.33
2022-12-12T01:18:47.300Z,-0.34
2022-12-12T01:21:16.512Z,-0.34
2022-12-12T01:23:43.816Z,-0.34
2022-12-12T01:26:14.575Z,-0.34
2022-12-12T01:28:43.127Z,-0.34
2022-12-12T01:31:10.947Z,-0.34
2022-12-12T01:33:38.683Z,-0.34
2022-12-12T01:36:06.733Z,-0.35
2022-12-12T01:38:34.122Z,-0.34
2022-12-12T01:41:01.373Z,-0.34
2022-12-12T01:43:28.912Z,-0.33
2022-12-12T01:46:02.780Z,-0.34
2022-12-12T01:48:47.441Z,-0.34
2022-12-12T01:51:18.523Z,-0.32
2022-12-12T01:53:47.479Z,-0.32
2022-12-12T01:56:19.397Z,-0.33
2022-12-12T01:58:51.112Z,-0.34
2022-12-12T02:01:20.583Z,-0.35
2022-12-12T02:03:49.381Z,-0.36
2022-12-12T02:06:22.382Z,-0.36
2022-12-12T02:08:55.308Z,-0.36
2022-12-12T02:11:22.660Z,-0.35
2022-12-12T02:13:51.113Z,-0.36
2022-12-12T02:16:36.992Z,-0.35
2022-12-12T02:19:23.044Z,-0.35
2022-12-12T02:22:04.907Z,-0.37
2022-12-12T02:24:38.155Z,-0.38
2022-12-12T02:27:14.276Z,-0.38
2022-12-12T02:29:46.955Z,-0.39
2022-12-12T02:32:25.226Z,-0.40
2022-12-12T02:35:17.315Z,-0.41
2022-12-12T02:38:05.216Z,-0.40
2022-12-12T02:40:47.687Z,-0.40
2022-12-12T02:43:44.470Z,-0.40
2022-12-12T02:46:19.846Z,-0.41
2022-12-12T02:49:11.669Z,-0.41
2022-12-12T02:51:40.552Z,-0.41
2022-12-12T02:54:14.594Z,-0.42
2022-12-12T02:56:45.599Z,-0.42
2022-12-12T02:59:31.938Z,-0.40
2022-12-12T03:02:21.277Z,-0.39
2022-12-12T03:05:22.513Z,-0.40
2022-12-12T03:08:09.248Z,-0.40
2022-12-12T03:11:03.792Z,-0.39
2022-12-12T03:13:34.690Z,-0.41
2022-12-12T03:16:19.124Z,-0.37
2022-12-12T03:19:04.772Z,-0.36
2022-12-12T03:21:50.799Z,-0.36
2022-12-12T03:24:21.034Z,-0.36
2022-12-12T03:27:06.122Z,-0.35
2022-12-12T03:29:43.935Z,-0.36
2022-12-12T03:32:17.253Z,-0.35
2022-12-12T03:35:07.567Z,-0.36
2022-12-12T03:37:43.406Z,-0.36
2022-12-12T03:40:20.275Z,-0.37
2022-12-12T03:43:03.386Z,-0.37
2022-12-12T03:45:47.795Z,-0.37
2022-12-12T03:48:29.798Z,-0.37
2022-12-12T03:51:07.643Z,-0.35
2022-12-12T03:54:07.892Z,-0.36
2022-12-12T03:56:40.547Z,-0.36
2022-12-12T03:59:33.279Z,-0.34
2022-12-12T04:02:10.728Z,-0.36
2022-12-12T04:04:55.271Z,-0.37
2022-12-12T04:07:32.558Z,-0.38
2022-12-12T04:10:18.447Z,-0.38
2022-12-12T04:13:00.813Z,-0.38
2022-12-12T04:15:50.019Z,-0.40
2022-12-12T04:18:44.305Z,-0.40
2022-12-12T04:21:59.894Z,-0.42
2022-12-12T04:24:51.218Z,-0.42
2022-12-12T04:27:29.081Z,-0.43
2022-12-12T04:30:05.832Z,-0.44
2022-12-12T04:32:45.647Z,-0.44
2022-12-12T04:35:15.846Z,-0.44
2022-12-12T04:37:55.799Z,-0.45
2022-12-12T04:40:30.450Z,-0.44
2022-12-12T04:43:06.009Z,-0.46
2022-12-12T04:45:38.443Z,-0.45
2022-12-12T04:48:09.667Z,-0.45
2022-12-12T04:50:38.826Z,-0.44
2022-12-12T04:53:16.540Z,-0.46
2022-12-12T04:55:55.766Z,-0.47
2022-12-12T04:58:24.425Z,-0.47
2022-12-12T05:01:10.042Z,-0.48
2022-12-12T05:04:02.110Z,-0.50
2022-12-12T05:06:37.746Z,-0.51
2022-12-12T05:09:07.711Z,-0.52
2022-12-12T05:11:35.518Z,-0.54
2022-12-12T05:14:03.194Z,-0.53
2022-12-12T05:16:36.082Z,-0.53
2022-12-12T05:19:05.602Z,-0.54
2022-12-12T05:21:32.909Z,-0.56
2022-12-12T05:24:00.258Z,-0.57
2022-12-12T05:26:36.122Z,-0.61
2022-12-12T05:29:07.557Z,-0.64
2022-12-12T05:31:36.056Z,-0.65
2022-12-12T05:34:04.217Z,-0.67
2022-12-12T05:36:37.641Z,-0.68
2022-12-12T05:39:04.936Z,-0.73
2022-12-12T05:41:32.267Z,-0.75
2022-12-12T05:43:59.566Z,-0.79
2022-12-12T05:46:26.887Z,-0.81
2022-12-12T05:48:55.127Z,-0.84
2022-12-12T05:51:22.599Z,-0.87
2022-12-12T05:53:50.306Z,-0.90
2022-12-12T05:56:20.692Z,-0.92
2022-12-12T05:58:48.088Z,-0.95
2022-12-12T06:01:15.464Z,-0.97
2022-12-12T06:03:43.577Z,-1.01
2022-12-12T06:06:10.911Z,-1.02
2022-12-12T06:08:39.489Z,-1.07
2022-12-12T06:11:08.155Z,-1.09
2022-12-12T06:13:35.550Z,-1.12
2022-12-12T06:16:17.972Z,-1.13
2022-12-12T06:18:50.315Z,-1.16
2022-12-12T06:21:18.293Z,-1.20
2022-12-12T06:23:47.600Z,-1.23
2022-12-12T06:26:17.322Z,-1.26
2022-12-12T06:28:44.679Z,-1.29
2022-12-12T06:31:12.900Z,-1.31
2022-12-12T06:33:42.964Z,-1.34
2022-12-12T06:36:19.317Z,-1.38
2022-12-12T06:38:48.919Z,-1.41
2022-12-12T06:41:17.417Z,-1.45
2022-12-12T06:43:44.994Z,-1.46
2022-12-12T06:46:24.212Z,-1.48
2022-12-12T06:48:55.770Z,-1.52
2022-12-12T06:51:26.488Z,-1.55
2022-12-12T06:53:55.970Z,-1.58
2022-12-12T06:56:25.246Z,-1.61
2022-12-12T06:58:53.893Z,-1.61
2022-12-12T07:01:22.901Z,-1.62
2022-12-12T07:03:52.258Z,-1.61
2022-12-12T07:06:21.764Z,-1.58
2022-12-12T07:08:49.977Z,-1.59
2022-12-12T07:11:23.444Z,-1.59
2022-12-12T07:13:52.063Z,-1.57
2022-12-12T07:16:20.094Z,-1.55
2022-12-12T07:18:48.082Z,-1.55
2022-12-12T07:21:18.091Z,-1.54
2022-12-12T07:23:45.763Z,-1.54
2022-12-12T07:26:17.846Z,-1.57
2022-12-12T07:28:45.767Z,-1.58
2022-12-12T07:31:16.260Z,-1.61
2022-12-12T07:33:45.027Z,-1.63
2022-12-12T07:36:15.330Z,-1.66
2022-12-12T07:38:44.760Z,-1.69
2022-12-12T07:41:16.301Z,-1.71
2022-12-12T07:43:51.122Z,-1.74
2022-12-12T07:46:21.442Z,-1.75
2022-12-12T07:48:49.189Z,-1.76
2022-12-12T07:51:17.225Z,-1.77
2022-12-12T07:53:44.819Z,-1.78
2022-12-12T07:56:14.219Z,-1.78
2022-12-12T07:58:41.988Z,-1.80
2022-12-12T08:01:21.407Z,-1.82
2022-12-12T08:03:49.736Z,-1.81
2022-12-12T08:06:19.311Z,-1.81
2022-12-12T08:08:51.361Z,-1.79
2022-12-12T08:11:21.933Z,-1.78
2022-12-12T08:13:49.632Z,-1.76
2022-12-12T08:16:24.178Z,-1.74
2022-12-12T08:18:57.566Z,-1.72
2022-12-12T08:21:26.719Z,-1.68
2022-12-12T08:23:57.348Z,-1.65
2022-12-12T08:26:26.178Z,-1.61
2022-12-12T08:28:54.008Z,-1.58
2022-12-12T08:31:25.313Z,-1.54
2022-12-12T08:33:56.829Z,-1.50
2022-12-12T08:36:26.976Z,-1.46
2022-12-12T08:38:57.118Z,-1.41
2022-12-12T08:41:25.406Z,-1.38
2022-12-12T08:43:53.415Z,-1.33
2022-12-12T08:46:22.114Z,-1.28
2022-12-12T08:48:49.666Z,-1.25
2022-12-12T08:51:17.663Z,-1.22
2022-12-12T08:53:47.022Z,-1.17
2022-12-12T08:56:15.421Z,-1.15
2022-12-12T08:58:44.179Z,-1.10
2022-12-12T09:01:20.427Z,-1.06
2022-12-12T09:03:48.309Z,-1.02
2022-12-12T09:06:18.411Z,-0.99
2022-12-12T09:08:47.229Z,-0.96
2022-12-12T09:11:14.597Z,-0.93
2022-12-12T09:13:41.897Z,-0.90
2022-12-12T09:16:11.084Z,-0.85
2022-12-12T09:18:44.581Z,-0.81
2022-12-12T09:21:15.388Z,-0.78
2022-12-12T09:23:44.660Z,-0.74
2022-12-12T09:26:12.141Z,-0.70
2022-12-12T09:28:41.004Z,-0.67
2022-12-12T09:31:10.742Z,-0.65
2022-12-12T09:33:39.287Z,-0.63
2022-12-12T09:36:08.853Z,-0.59
2022-12-12T09:38:36.736Z,-0.53
2022-12-12T09:41:10.113Z,-0.51
2022-12-12T09:43:45.703Z,-0.45
2022-12-12T09:46:28.136Z,-0.38
2022-12-12T09:49:20.581Z,-0.33
2022-12-12T09:51:50.813Z,-0.35
2022-12-12T09:54:21.291Z,-0.30
2022-12-12T09:57:20.014Z,-0.25
2022-12-12T10:00:10.449Z,-0.20
2022-12-12T10:02:47.957Z,-0.16
2022-12-12T10:05:32.186Z,-0.14
2022-12-12T10:08:30.057Z,-0.10
2022-12-12T10:11:08.670Z,-0.08
2022-12-12T10:13:37.147Z,-0.05
2022-12-12T10:16:15.233Z,-0.01
2022-12-12T10:18:48.006Z,0.00
2022-12-12T10:21:24.690Z,0.04
2022-12-12T10:24:15.949Z,0.06
2022-12-12T10:26:43.471Z,0.10
2022-12-12T10:29:16.734Z,0.14
2022-12-12T10:31:50.261Z,0.19
2022-12-12T10:34:31.369Z,0.24
2022-12-12T10:37:29.486Z,0.28
2022-12-12T10:39:59.751Z,0.33
2022-12-12T10:42:53.842Z,0.38
2022-12-12T10:45:33.067Z,0.38
2022-12-12T10:48:01.440Z,0.37
2022-12-12T10:50:34.006Z,0.39
2022-12-12T10:53:03.586Z,0.44
2022-12-12T10:55:47.828Z,0.46
2022-12-12T10:58:17.198Z,0.48
2022-12-12T11:00:47.072Z,0.49
2022-12-12T11:03:22.319Z,0.52
2022-12-12T11:05:49.803Z,0.54
2022-12-12T11:08:27.843Z,0.59
2022-12-12T11:11:19.795Z,0.60
2022-12-12T11:13:52.278Z,0.61
2022-12-12T11:16:25.739Z,0.64
2022-12-12T11:19:07.067Z,0.64
2022-12-12T11:21:37.342Z,0.66
2022-12-12T11:24:10.986Z,0.68
2022-12-12T11:26:42.983Z,0.71
2022-12-12T11:29:29.973Z,0.71
2022-12-12T11:31:59.794Z,0.68
2022-12-12T11:34:28.945Z,0.65
2022-12-12T11:36:59.543Z,0.65
2022-12-12T11:39:39.841Z,0.66
2022-12-12T11:42:22.896Z,0.64
2022-12-12T11:45:05.754Z,0.63
2022-12-12T11:47:55.885Z,0.62
2022-12-12T11:50:28.619Z,0.59
2022-12-12T11:53:03.318Z,0.59
2022-12-12T11:55:57.759Z,0.58
2022-12-12T11:58:33.016Z,0.58
2022-12-12T12:01:12.966Z,0.60
2022-12-12T12:03:58.502Z,0.61
2022-12-12T12:06:43.010Z,0.57
2022-12-12T12:09:13.280Z,0.52
2022-12-12T12:12:04.399Z,0.49
2022-12-12T12:15:09.642Z,0.47
2022-12-12T12:18:10.719Z,0.43
2022-12-12T12:20:40.906Z,0.43
2022-12-12T12:23:21.483Z,0.43
2022-12-12T12:26:19.327Z,0.40
2022-12-12T12:29:18.648Z,0.38
2022-12-12T12:31:52.081Z,0.39
2022-12-12T12:34:28.333Z,0.36
2022-12-12T12:37:34.281Z,0.36
2022-12-12T12:40:04.461Z,0.36
2022-12-12T12:42:52.711Z,0.34
2022-12-12T12:45:49.283Z,0.31
2022-12-12T12:48:22.680Z,0.29
2022-12-12T12:51:04.739Z,0.25
2022-12-12T12:53:43.598Z,0.23
2022-12-12T12:56:30.086Z,0.21
2022-12-12T12:59:01.989Z,0.22
2022-12-12T13:01:38.167Z,0.20
2022-12-12T13:04:17.246Z,0.19
2022-12-12T13:06:55.946Z,0.19
2022-12-12T13:09:44.637Z,0.19
2022-12-12T13:12:25.258Z,0.19
2022-12-12T13:14:58.436Z,0.22
2022-12-12T13:17:46.819Z,0.23
2022-12-12T13:20:21.922Z,0.23
2022-12-12T13:23:15.638Z,0.21
2022-12-12T13:25:57.437Z,0.19
2022-12-12T13:28:34.940Z,0.17
2022-12-12T13:31:40.040Z,0.14
2022-12-12T13:34:17.254Z,0.12
2022-12-12T13:36:51.731Z,0.09
2022-12-12T13:39:25.133Z,0.04
2022-12-12T13:42:05.038Z,0.02
2022-12-12T13:44:47.314Z,-0.01
2022-12-12T13:47:23.879Z,-0.04
2022-12-12T13:50:24.541Z,-0.08
2022-12-12T13:53:06.843Z,-0.13
2022-12-12T13:55:35.481Z,-0.15
2022-12-12T13:58:17.259Z,-0.18
2022-12-12T14:00:44.918Z,-0.21
2022-12-12T14:03:13.500Z,-0.24
2022-12-12T14:05:43.572Z,-0.29
2022-12-12T14:08:10.821Z,-0.32
2022-12-12T14:10:45.744Z,-0.34
2022-12-12T14:13:16.081Z,-0.36
2022-12-12T14:15:47.443Z,-0.39
2022-12-12T14:18:28.487Z,-0.40
2022-12-12T14:21:08.364Z,-0.42
2022-12-12T14:23:43.978Z,-0.47
2022-12-12T14:26:29.760Z,-0.51
2022-12-12T14:29:18.815Z,-0.55
2022-12-12T14:31:53.313Z,-0.60
2022-12-12T14:34:52.334Z,-0.63
2022-12-12T14:37:32.468Z,-0.66
2022-12-12T14:40:02.316Z,-0.69
2022-12-12T14:43:21.067Z,-0.72
2022-12-12T14:45:30.249Z,-0.78
2022-12-12T14:48:32.093Z,-0.80
2022-12-12T14:51:25.837Z,-0.85
2022-12-12T14:53:58.016Z,-0.86
2022-12-12T14:56:29.838Z,-0.89
2022-12-12T14:59:07.645Z,-0.92
2022-12-12T15:01:35.108Z,-0.96
2022-12-12T15:04:12.508Z,-1.00
2022-12-12T15:06:44.222Z,-1.03
2022-12-12T15:09:29.394Z,-1.04
2022-12-12T15:12:11.447Z,-1.07
2022-12-12T15:14:49.074Z,-1.08
2022-12-12T15:17:19.940Z,-1.11
2022-12-12T15:19:48.740Z,-1.12
2022-12-12T15:22:24.770Z,-1.14
2022-12-12T15:24:54.048Z,-1.16
2022-12-12T15:27:55.372Z,-1.20
2022-12-12T15:30:34.155Z,-1.23
2022-12-12T15:33:04.551Z,-1.25
2022-12-12T15:35:32.122Z,-1.28
2022-12-12T15:38:01.759Z,-1.31
2022-12-12T15:40:30.201Z,-1.34
2022-12-12T15:43:05.863Z,-1.35
2022-12-12T15:45:37.828Z,-1.39
2022-12-12T15:48:15.624Z,-1.43
2022-12-12T15:50:46.349Z,-1.45
2022-12-12T15:53:24.431Z,-1.50
2022-12-12T15:56:00.817Z,-1.55
2022-12-12T15:58:35.981Z,-1.60
2022-12-12T16:01:20.844Z,-1.65
2022-12-12T16:04:00.414Z,-1.69
2022-12-12T16:06:32.850Z,-1.72
2022-12-12T16:09:07.867Z,-1.74
2022-12-12T16:11:58.168Z,-1.78
2022-12-12T16:14:40.101Z,-1.80
2022-12-12T16:17:26.018Z,-1.82
2022-12-12T16:20:05.719Z,-1.85
2022-12-12T16:22:32.956Z,-1.87
2022-12-12T16:25:24.074Z,-1.90
2022-12-12T16:28:11.007Z,-1.94
2022-12-12T16:30:40.805Z,-1.97
2022-12-12T16:33:35.165Z,-1.98
2022-12-12T16:36:08.108Z,-2.00
2022-12-12T16:38:35.969Z,-2.04
2022-12-12T16:41:07.973Z,-2.06
2022-12-12T16:43:35.245Z,-2.09
2022-12-12T16:46:02.696Z,-2.13
2022-12-12T16:48:35.742Z,-2.16
2022-12-12T16:51:08.997Z,-2.18
2022-12-12T16:53:36.796Z,-2.19
2022-12-12T16:56:04.806Z,-2.20
2022-12-12T16:58:33.066Z,-2.22
2022-12-12T17:01:01.844Z,-2.24
2022-12-12T17:03:32.956Z,-2.27
2022-12-12T17:06:00.667Z,-2.29
2022-12-12T17:08:28.658Z,-2.30
2022-12-12T17:11:10.477Z,-2.32
2022-12-12T17:13:44.478Z,-2.33
2022-12-12T17:16:12.120Z,-2.35
2022-12-12T17:18:39.584Z,-2.38
2022-12-12T17:21:06.974Z,-2.38
2022-12-12T17:23:34.354Z,-2.42
2022-12-12T17:26:04.621Z,-2.46
2022-12-12T17:28:35.500Z,-2.49
2022-12-12T17:31:07.508Z,-2.51
2022-12-12T17:33:35.153Z,-2.55
2022-12-12T17:36:06.411Z,-2.56
2022-12-12T17:38:41.847Z,-2.59
2022-12-12T17:41:10.978Z,-2.60
2022-12-12T17:43:38.336Z,-2.60
2022-12-12T17:46:08.286Z,-2.62
2022-12-12T17:48:36.073Z,-2.64
2022-12-12T17:51:05.987Z,-2.65
2022-12-12T17:53:38.051Z,-2.68
2022-12-12T17:56:10.574Z,-2.71
2022-12-12T17:58:40.889Z,-2.75
2022-12-12T18:01:24.106Z,-2.78
2022-12-12T18:03:51.631Z,-2.79
2022-12-12T18:06:21.253Z,-2.79
2022-12-12T18:08:50.041Z,-2.80
2022-12-12T18:11:24.523Z,-2.81
2022-12-12T18:13:55.931Z,-2.83
2022-12-12T18:16:24.716Z,-2.85
2022-12-12T18:18:52.283Z,-2.87
2022-12-12T18:21:51.634Z,-2.88
2022-12-12T18:24:11.384Z,-2.90
2022-12-12T18:26:38.744Z,-2.94
2022-12-12T18:29:07.686Z,-2.95
2022-12-12T18:31:36.254Z,-2.97
2022-12-12T18:34:04.032Z,-2.97
2022-12-12T18:36:32.388Z,-2.98
2022-12-12T18:39:01.942Z,-2.99
2022-12-12T18:41:31.424Z,-3.00
2022-12-12T18:44:02.780Z,-2.98
2022-12-12T18:46:38.745Z,-2.98
2022-12-12T18:49:15.823Z,-2.99
2022-12-12T18:51:48.493Z,-3.00
2022-12-12T18:54:16.689Z,-3.02
2022-12-12T18:56:47.373Z,-3.05
2022-12-12T18:59:15.786Z,-3.07
2022-12-12T19:01:44.238Z,-3.08
2022-12-12T19:04:17.751Z,-3.09
2022-12-12T19:06:50.172Z,-3.13
2022-12-12T19:09:19.555Z,-3.12
2022-12-12T19:11:53.244Z,-3.14
2022-12-12T19:14:24.514Z,-3.14
2022-12-12T19:16:52.052Z,-3.15
2022-12-12T19:19:20.128Z,-3.13
2022-12-12T19:21:48.175Z,-3.12
2022-12-12T19:24:15.691Z,-3.10
2022-12-12T19:26:47.753Z,-3.10
2022-12-12T19:29:18.667Z,-3.11
2022-12-12T19:31:46.701Z,-3.11
2022-12-12T19:34:16.170Z,-3.11
2022-12-12T19:36:44.449Z,-3.14
2022-12-12T19:39:12.827Z,-3.15
2022-12-12T19:41:40.882Z,-3.16
2022-12-12T19:44:12.705Z,-3.19
2022-12-12T19:46:42.720Z,-3.20
2022-12-12T19:49:13.221Z,-3.20
2022-12-12T19:51:44.744Z,-3.19
2022-12-12T19:54:19.223Z,-3.18
2022-12-12T19:56:47.895Z,-3.16
2022-12-12T19:59:18.103Z,-3.10
2022-12-12T20:01:47.280Z,-3.05
2022-12-12T20:04:20.158Z,-3.00
2022-12-12T20:06:49.369Z,-2.96
2022-12-12T20:09:19.235Z,-2.90
2022-12-12T20:11:49.266Z,-2.84
2022-12-12T20:14:24.028Z,-2.82
2022-12-12T20:16:55.551Z,-2.78
2022-12-12T20:19:26.914Z,-2.75
2022-12-12T20:22:01.301Z,-2.72
2022-12-12T20:24:30.321Z,-2.68
2022-12-12T20:26:59.403Z,-2.66
2022-12-12T20:29:27.561Z,-2.64
2022-12-12T20:31:56.643Z,-2.65
2022-12-12T20:34:24.906Z,-2.64
2022-12-12T20:36:55.104Z,-2.65
2022-12-12T20:39:25.194Z,-2.64
2022-12-12T20:41:56.018Z,-2.66
2022-12-12T20:44:25.772Z,-2.68
2022-12-12T20:46:55.891Z,-2.68
2022-12-12T20:49:24.605Z,-2.69
2022-12-12T20:51:56.809Z,-2.69
2022-12-12T20:54:26.357Z,-2.70
2022-12-12T20:56:56.621Z,-2.68
2022-12-12T20:59:25.852Z,-2.68
2022-12-12T21:01:55.618Z,-2.67
2022-12-12T21:04:24.321Z,-2.67
2022-12-12T21:06:52.069Z,-2.67
2022-12-12T21:09:25.588Z,-2.68
2022-12-12T21:11:56.094Z,-2.67
2022-12-12T21:14:25.465Z,-2.67
2022-12-12T21:16:53.364Z,-2.68
2022-12-12T21:19:22.265Z,-2.65
2022-12-12T21:21:50.414Z,-2.64
2022-12-12T21:24:18.232Z,-2.61
2022-12-12T21:26:51.980Z,-2.61
2022-12-12T21:29:19.557Z,-2.60
2022-12-12T21:31:52.535Z,-2.60
2022-12-12T21:34:22.002Z,-2.62
2022-12-12T21:36:58.185Z,-2.62
2022-12-12T21:39:28.913Z,-2.64
2022-12-12T21:41:56.443Z,-2.65
2022-12-12T21:44:23.993Z,-2.68
2022-12-12T21:46:51.732Z,-2.70
2022-12-12T21:49:28.329Z,-2.75
2022-12-12T21:52:00.920Z,-2.78
2022-12-12T21:54:29.950Z,-2.79
2022-12-12T21:57:01.057Z,-2.78
2022-12-12T21:59:29.312Z,-2.78
2022-12-12T22:01:59.110Z,-2.80
2022-12-12T22:04:26.801Z,-2.83
2022-12-12T22:06:55.595Z,-2.88
2022-12-12T22:09:23.525Z,-2.92
2022-12-12T22:11:52.166Z,-2.95
2022-12-12T22:14:30.657Z,-2.98
2022-12-12T22:16:58.008Z,-3.02
2022-12-12T22:19:25.540Z,-3.04
2022-12-12T22:21:52.782Z,-3.04
2022-12-12T22:24:20.103Z,-3.07
2022-12-12T22:26:51.426Z,-3.09
2022-12-12T22:29:20.239Z,-3.09
2022-12-12T22:31:50.518Z,-3.10
2022-12-12T22:34:23.885Z,-3.14
2022-12-12T22:36:52.730Z,-3.13
2022-12-12T22:39:23.550Z,-3.16
2022-12-12T22:41:51.846Z,-3.16
2022-12-12T22:44:21.679Z,-3.18
2022-12-12T22:46:51.638Z,-3.19
2022-12-12T22:49:22.486Z,-3.24
2022-12-12T22:51:50.130Z,-3.27
2022-12-12T22:54:18.389Z,-3.28
2022-12-12T22:56:46.447Z,-3.30
2022-12-12T22:59:14.682Z,-3.31
2022-12-12T23:01:42.814Z,-3.29
2022-12-12T23:04:14.525Z,-3.31
2022-12-12T23:06:43.259Z,-3.31
2022-12-12T23:09:20.597Z,-3.33
2022-12-12T23:11:49.594Z,-3.35
2022-12-12T23:14:21.767Z,-3.38
2022-12-12T23:16:50.505Z,-3.41
2022-12-12T23:19:20.778Z,-3.43
2022-12-12T23:21:48.041Z,-3.43
2022-12-12T23:24:16.184Z,-3.45
2022-12-12T23:26:44.312Z,-3.47
2022-12-12T23:29:16.306Z,-3.50
2022-12-12T23:31:43.934Z,-3.53
2022-12-12T23:34:20.834Z,-3.55
2022-12-12T23:36:52.399Z,-3.57
2022-12-12T23:39:20.155Z,-3.57
2022-12-12T23:41:47.885Z,-3.60
2022-12-12T23:44:17.359Z,-3.62
2022-12-12T23:46:46.612Z,-3.65
2022-12-12T23:49:22.232Z,-3.65
2022-12-12T23:51:57.255Z,-3.68
2022-12-12T23:54:35.011Z,-3.72
2022-12-12T23:57:03.284Z,-3.72
2022-12-12T23:59:30.791Z,-3.71
